KSCH/SCH METAR and TAF weather

Enter ICAO airport designator
Station Type Date Time Source
KSCH METAR 2020/11/25 21:52 UTC NOAA

KSCH 252152Z 17006KT 15SM FEW060 SCT100 BKN120 09/01 A3017


Station Type Date Time Source
KSCH Decoded METAR 2020/11/25 21:52 UTC NOAA

Schenectady Airport, NY, United States (KSCH) 42-51N 073-56W
Nov 25, 2020 - 04:52 PM EST / 2020.11.25 2152 UTC
Wind: from the S (170 degrees) at 7 MPH (6 KT):0
Visibility: 15 mile(s):0
Sky conditions: mostly cloudy
Temperature: 48 F (9 C)
Dew Point: 33 F (1 C)
Relative Humidity: 57%
Pressure (altimeter): 30.17 in. Hg (1021 hPa)
ob: KSCH 252152Z 17006KT 15SM FEW060 SCT100 BKN120 09/01 A3017
cycle: 22

Station Type Date Time Source
KSCH TAF UTC NOAA

Error!

Example: see airport list